sensor_id;sensor_type;location;lat;lon;timestamp;pressure;altitude;pressure_sealevel;temperature;humidity
65010;BME280;51556;50.002;22.014;2023-04-25T00:01:08;98031.34;;;13.84;67.47
65010;BME280;51556;50.002;22.014;2023-04-25T00:03:34;98027.70;;;13.86;67.24
65010;BME280;51556;50.002;22.014;2023-04-25T00:06:01;98027.02;;;13.80;67.05
65010;BME280;51556;50.002;22.014;2023-04-25T00:08:31;98025.70;;;13.72;67.34
65010;BME280;51556;50.002;22.014;2023-04-25T00:10:57;98023.98;;;13.69;67.85
65010;BME280;51556;50.002;22.014;2023-04-25T00:13:32;98022.08;;;13.59;68.15
65010;BME280;51556;50.002;22.014;2023-04-25T00:16:09;98016.95;;;13.44;68.64
65010;BME280;51556;50.002;22.014;2023-04-25T00:18:34;98015.14;;;13.35;68.77
65010;BME280;51556;50.002;22.014;2023-04-25T00:21:00;98010.36;;;13.27;68.68
65010;BME280;51556;50.002;22.014;2023-04-25T00:23:25;98010.06;;;13.23;68.84
65010;BME280;51556;50.002;22.014;2023-04-25T00:25:51;98006.11;;;13.21;69.15
65010;BME280;51556;50.002;22.014;2023-04-25T00:28:16;98008.01;;;13.18;69.31
65010;BME280;51556;50.002;22.014;2023-04-25T00:30:42;98009.73;;;13.16;69.36
65010;BME280;51556;50.002;22.014;2023-04-25T00:33:08;98006.76;;;13.15;69.40
65010;BME280;51556;50.002;22.014;2023-04-25T00:35:34;98003.70;;;13.16;69.66
65010;BME280;51556;50.002;22.014;2023-04-25T00:38:00;98001.94;;;13.19;69.37
65010;BME280;51556;50.002;22.014;2023-04-25T00:40:26;98000.96;;;13.24;69.63
65010;BME280;51556;50.002;22.014;2023-04-25T00:42:52;97999.66;;;13.25;69.85
65010;BME280;51556;50.002;22.014;2023-04-25T00:45:18;97995.36;;;13.26;69.65
65010;BME280;51556;50.002;22.014;2023-04-25T00:47:44;97994.67;;;13.26;69.54
65010;BME280;51556;50.002;22.014;2023-04-25T00:50:12;97992.02;;;13.23;69.66
65010;BME280;51556;50.002;22.014;2023-04-25T00:52:39;97990.17;;;13.25;69.78
65010;BME280;51556;50.002;22.014;2023-04-25T00:55:06;97989.27;;;13.28;69.72
65010;BME280;51556;50.002;22.014;2023-04-25T00:57:33;97987.18;;;13.27;69.74
65010;BME280;51556;50.002;22.014;2023-04-25T00:59:58;97990.20;;;13.24;69.68
65010;BME280;51556;50.002;22.014;2023-04-25T01:02:25;97991.14;;;13.17;69.99
65010;BME280;51556;50.002;22.014;2023-04-25T01:04:51;97990.98;;;13.13;70.09
65010;BME280;51556;50.002;22.014;2023-04-25T01:07:16;97986.23;;;13.09;70.03
65010;BME280;51556;50.002;22.014;2023-04-25T01:09:42;97986.72;;;13.04;70.41
65010;BME280;51556;50.002;22.014;2023-04-25T01:12:07;97985.73;;;13.00;70.68
65010;BME280;51556;50.002;22.014;2023-04-25T01:14:33;97985.64;;;12.98;70.61
65010;BME280;51556;50.002;22.014;2023-04-25T01:16:59;97986.17;;;12.98;70.68
65010;BME280;51556;50.002;22.014;2023-04-25T01:19:24;97981.06;;;12.95;70.65
65010;BME280;51556;50.002;22.014;2023-04-25T01:21:50;97977.88;;;12.92;71.04
65010;BME280;51556;50.002;22.014;2023-04-25T01:24:16;97976.79;;;12.90;70.95
65010;BME280;51556;50.002;22.014;2023-04-25T01:26:42;97976.47;;;12.83;71.25
65010;BME280;51556;50.002;22.014;2023-04-25T01:29:16;97973.26;;;12.77;71.34
65010;BME280;51556;50.002;22.014;2023-04-25T01:31:41;97970.34;;;12.76;71.41
65010;BME280;51556;50.002;22.014;2023-04-25T01:34:07;97968.80;;;12.81;71.62
65010;BME280;51556;50.002;22.014;2023-04-25T01:36:34;97967.70;;;12.88;71.37
65010;BME280;51556;50.002;22.014;2023-04-25T01:39:00;97965.35;;;12.95;71.17
65010;BME280;51556;50.002;22.014;2023-04-25T01:41:26;97961.01;;;13.00;71.38
65010;BME280;51556;50.002;22.014;2023-04-25T01:43:52;97957.53;;;13.04;71.11
65010;BME280;51556;50.002;22.014;2023-04-25T01:46:18;97956.23;;;13.06;70.86
65010;BME280;51556;50.002;22.014;2023-04-25T01:48:43;97953.62;;;13.05;71.09
65010;BME280;51556;50.002;22.014;2023-04-25T01:51:09;97948.75;;;13.03;70.97
65010;BME280;51556;50.002;22.014;2023-04-25T01:53:37;97945.96;;;13.03;70.96
65010;BME280;51556;50.002;22.014;2023-04-25T01:56:03;97948.75;;;13.07;71.01
65010;BME280;51556;50.002;22.014;2023-04-25T01:58:28;97945.23;;;13.06;70.93
65010;BME280;51556;50.002;22.014;2023-04-25T02:00:54;97948.80;;;13.06;70.99
65010;BME280;51556;50.002;22.014;2023-04-25T02:03:20;97948.61;;;13.06;71.12
65010;BME280;51556;50.002;22.014;2023-04-25T02:05:45;97947.25;;;13.05;70.90
65010;BME280;51556;50.002;22.014;2023-04-25T02:08:11;97942.33;;;13.08;71.22
65010;BME280;51556;50.002;22.014;2023-04-25T02:10:36;97939.61;;;13.09;71.12
65010;BME280;51556;50.002;22.014;2023-04-25T02:13:02;97936.58;;;13.13;71.18
65010;BME280;51556;50.002;22.014;2023-04-25T02:15:30;97941.23;;;13.15;70.95
65010;BME280;51556;50.002;22.014;2023-04-25T02:17:56;97940.95;;;13.13;70.82
65010;BME280;51556;50.002;22.014;2023-04-25T02:20:22;97940.16;;;13.15;70.72
65010;BME280;51556;50.002;22.014;2023-04-25T02:22:49;97933.41;;;13.16;70.70
65010;BME280;51556;50.002;22.014;2023-04-25T02:25:14;97933.85;;;13.18;70.77
65010;BME280;51556;50.002;22.014;2023-04-25T02:27:41;97931.38;;;13.18;70.81
65010;BME280;51556;50.002;22.014;2023-04-25T02:30:08;97932.02;;;13.22;70.79
65010;BME280;51556;50.002;22.014;2023-04-25T02:32:33;97929.19;;;13.25;70.99
65010;BME280;51556;50.002;22.014;2023-04-25T02:35:00;97929.61;;;13.27;70.66
65010;BME280;51556;50.002;22.014;2023-04-25T02:37:31;97931.08;;;13.29;70.69
65010;BME280;51556;50.002;22.014;2023-04-25T02:39:57;97930.77;;;13.28;70.80
65010;BME280;51556;50.002;22.014;2023-04-25T02:42:22;97928.14;;;13.24;70.82
65010;BME280;51556;50.002;22.014;2023-04-25T02:44:48;97926.61;;;13.23;71.02
65010;BME280;51556;50.002;22.014;2023-04-25T02:47:13;97931.17;;;13.24;71.00
65010;BME280;51556;50.002;22.014;2023-04-25T02:49:39;97928.40;;;13.26;70.95
65010;BME280;51556;50.002;22.014;2023-04-25T02:52:05;97927.46;;;13.30;71.00
65010;BME280;51556;50.002;22.014;2023-04-25T02:54:31;97931.20;;;13.32;70.84
65010;BME280;51556;50.002;22.014;2023-04-25T02:56:57;97932.50;;;13.35;70.98
65010;BME280;51556;50.002;22.014;2023-04-25T02:59:22;97928.75;;;13.35;70.87
65010;BME280;51556;50.002;22.014;2023-04-25T03:01:48;97930.79;;;13.36;70.99
65010;BME280;51556;50.002;22.014;2023-04-25T03:04:13;97928.58;;;13.35;70.76
65010;BME280;51556;50.002;22.014;2023-04-25T03:06:38;97925.02;;;13.35;70.89
65010;BME280;51556;50.002;22.014;2023-04-25T03:09:04;97921.32;;;13.32;70.91
65010;BME280;51556;50.002;22.014;2023-04-25T03:11:29;97920.56;;;13.33;71.14
65010;BME280;51556;50.002;22.014;2023-04-25T03:13:55;97920.33;;;13.34;71.33
65010;BME280;51556;50.002;22.014;2023-04-25T03:16:21;97915.65;;;13.35;71.11
65010;BME280;51556;50.002;22.014;2023-04-25T03:18:47;97916.50;;;13.30;71.16
65010;BME280;51556;50.002;22.014;2023-04-25T03:21:17;97916.31;;;13.30;71.63
65010;BME280;51556;50.002;22.014;2023-04-25T03:23:42;97915.47;;;13.32;71.40
65010;BME280;51556;50.002;22.014;2023-04-25T03:26:08;97918.86;;;13.35;71.19
65010;BME280;51556;50.002;22.014;2023-04-25T03:28:33;97916.73;;;13.38;71.44
65010;BME280;51556;50.002;22.014;2023-04-25T03:30:59;97920.26;;;13.41;71.51
65010;BME280;51556;50.002;22.014;2023-04-25T03:33:24;97918.99;;;13.45;71.35
65010;BME280;51556;50.002;22.014;2023-04-25T03:35:50;97917.66;;;13.46;71.36
65010;BME280;51556;50.002;22.014;2023-04-25T03:38:15;97919.91;;;13.47;71.50
65010;BME280;51556;50.002;22.014;2023-04-25T03:40:41;97917.34;;;13.51;71.51
65010;BME280;51556;50.002;22.014;2023-04-25T03:43:06;97919.83;;;13.51;71.47
65010;BME280;51556;50.002;22.014;2023-04-25T03:45:32;97917.80;;;13.47;71.43
65010;BME280;51556;50.002;22.014;2023-04-25T03:47:57;97917.73;;;13.45;71.51
65010;BME280;51556;50.002;22.014;2023-04-25T03:50:23;97918.66;;;13.47;71.46
65010;BME280;51556;50.002;22.014;2023-04-25T03:52:48;97921.74;;;13.49;71.54
65010;BME280;51556;50.002;22.014;2023-04-25T03:55:14;97921.80;;;13.51;71.66
65010;BME280;51556;50.002;22.014;2023-04-25T03:57:39;97923.34;;;13.52;72.04
65010;BME280;51556;50.002;22.014;2023-04-25T04:00:06;97920.27;;;13.44;71.81
65010;BME280;51556;50.002;22.014;2023-04-25T04:02:31;97918.75;;;13.43;72.05
65010;BME280;51556;50.002;22.014;2023-04-25T04:04:58;97918.92;;;13.43;72.12
65010;BME280;51556;50.002;22.014;2023-04-25T04:07:23;97920.65;;;13.43;72.29
65010;BME280;51556;50.002;22.014;2023-04-25T04:09:49;97919.98;;;13.46;72.28
65010;BME280;51556;50.002;22.014;2023-04-25T04:12:14;97919.14;;;13.48;72.30
65010;BME280;51556;50.002;22.014;2023-04-25T04:14:40;97918.76;;;13.49;72.42
65010;BME280;51556;50.002;22.014;2023-04-25T04:17:05;97919.44;;;13.52;72.27
65010;BME280;51556;50.002;22.014;2023-04-25T04:19:40;97921.91;;;13.55;72.40
65010;BME280;51556;50.002;22.014;2023-04-25T04:22:06;97922.50;;;13.60;72.47
65010;BME280;51556;50.002;22.014;2023-04-25T04:24:35;97922.90;;;13.62;72.52
65010;BME280;51556;50.002;22.014;2023-04-25T04:27:03;97925.55;;;13.62;72.32
65010;BME280;51556;50.002;22.014;2023-04-25T04:29:29;97926.35;;;13.63;72.41
65010;BME280;51556;50.002;22.014;2023-04-25T04:31:55;97926.71;;;13.66;72.46
65010;BME280;51556;50.002;22.014;2023-04-25T04:34:20;97924.64;;;13.68;72.20
65010;BME280;51556;50.002;22.014;2023-04-25T04:36:46;97925.80;;;13.69;72.45
65010;BME280;51556;50.002;22.014;2023-04-25T04:39:12;97925.49;;;13.69;72.43
65010;BME280;51556;50.002;22.014;2023-04-25T04:41:38;97923.77;;;13.71;72.44
65010;BME280;51556;50.002;22.014;2023-04-25T04:44:04;97922.71;;;13.74;72.57
65010;BME280;51556;50.002;22.014;2023-04-25T04:46:32;97925.04;;;13.76;72.17
65010;BME280;51556;50.002;22.014;2023-04-25T04:49:03;97924.60;;;13.74;72.50
65010;BME280;51556;50.002;22.014;2023-04-25T04:51:29;97923.44;;;13.73;72.22
65010;BME280;51556;50.002;22.014;2023-04-25T04:53:55;97920.00;;;13.72;72.48
65010;BME280;51556;50.002;22.014;2023-04-25T04:56:24;97921.05;;;13.75;72.19
65010;BME280;51556;50.002;22.014;2023-04-25T04:58:51;97920.34;;;13.77;72.42
65010;BME280;51556;50.002;22.014;2023-04-25T05:01:17;97920.03;;;13.77;72.05
65010;BME280;51556;50.002;22.014;2023-04-25T05:03:43;97921.59;;;13.77;72.16
65010;BME280;51556;50.002;22.014;2023-04-25T05:06:08;97916.83;;;13.77;72.17
65010;BME280;51556;50.002;22.014;2023-04-25T05:08:34;97917.59;;;13.82;72.57
65010;BME280;51556;50.002;22.014;2023-04-25T05:10:59;97916.88;;;13.82;72.32
65010;BME280;51556;50.002;22.014;2023-04-25T05:13:25;97917.34;;;13.80;72.63
65010;BME280;51556;50.002;22.014;2023-04-25T05:15:50;97918.90;;;13.81;72.50
65010;BME280;51556;50.002;22.014;2023-04-25T05:18:15;97918.98;;;13.82;72.33
65010;BME280;51556;50.002;22.014;2023-04-25T05:20:41;97914.98;;;13.84;72.32
65010;BME280;51556;50.002;22.014;2023-04-25T05:23:06;97915.88;;;13.84;72.43
65010;BME280;51556;50.002;22.014;2023-04-25T05:25:32;97916.80;;;13.83;72.21
65010;BME280;51556;50.002;22.014;2023-04-25T05:27:58;97920.54;;;13.86;72.44
65010;BME280;51556;50.002;22.014;2023-04-25T05:30:23;97918.89;;;13.87;72.60
65010;BME280;51556;50.002;22.014;2023-04-25T05:32:49;97920.11;;;13.84;72.03
65010;BME280;51556;50.002;22.014;2023-04-25T05:35:14;97919.02;;;13.82;72.20
65010;BME280;51556;50.002;22.014;2023-04-25T05:37:40;97920.20;;;13.79;72.24
65010;BME280;51556;50.002;22.014;2023-04-25T05:40:06;97916.96;;;13.78;72.40
65010;BME280;51556;50.002;22.014;2023-04-25T05:42:32;97917.59;;;13.79;72.39
65010;BME280;51556;50.002;22.014;2023-04-25T05:44:58;97923.37;;;13.80;72.38
65010;BME280;51556;50.002;22.014;2023-04-25T05:47:23;97923.50;;;13.78;72.34
65010;BME280;51556;50.002;22.014;2023-04-25T05:49:48;97924.58;;;13.75;72.73
65010;BME280;51556;50.002;22.014;2023-04-25T05:52:14;97922.91;;;13.73;72.81
65010;BME280;51556;50.002;22.014;2023-04-25T05:54:40;97919.02;;;13.76;73.06
65010;BME280;51556;50.002;22.014;2023-04-25T05:57:06;97920.73;;;13.80;73.03
65010;BME280;51556;50.002;22.014;2023-04-25T05:59:31;97919.85;;;13.82;73.01
65010;BME280;51556;50.002;22.014;2023-04-25T06:01:57;97923.81;;;13.84;72.97
65010;BME280;51556;50.002;22.014;2023-04-25T06:04:23;97923.23;;;13.85;72.95
65010;BME280;51556;50.002;22.014;2023-04-25T06:06:48;97923.25;;;13.88;73.17
65010;BME280;51556;50.002;22.014;2023-04-25T06:09:19;97922.19;;;13.90;72.83
65010;BME280;51556;50.002;22.014;2023-04-25T06:11:45;97925.13;;;13.94;72.79
65010;BME280;51556;50.002;22.014;2023-04-25T06:14:10;97924.23;;;13.97;72.66
65010;BME280;51556;50.002;22.014;2023-04-25T06:16:36;97927.45;;;13.97;72.57
65010;BME280;51556;50.002;22.014;2023-04-25T06:19:01;97924.71;;;13.95;72.82
65010;BME280;51556;50.002;22.014;2023-04-25T06:21:26;97928.16;;;13.91;72.74
65010;BME280;51556;50.002;22.014;2023-04-25T06:23:52;97928.58;;;13.90;72.97
65010;BME280;51556;50.002;22.014;2023-04-25T06:26:18;97926.62;;;13.90;73.16
65010;BME280;51556;50.002;22.014;2023-04-25T06:28:44;97926.83;;;13.90;73.15
65010;BME280;51556;50.002;22.014;2023-04-25T06:31:09;97922.67;;;13.85;73.23
65010;BME280;51556;50.002;22.014;2023-04-25T06:33:35;97922.59;;;13.73;73.93
65010;BME280;51556;50.002;22.014;2023-04-25T06:36:00;97921.44;;;13.63;73.67
65010;BME280;51556;50.002;22.014;2023-04-25T06:38:26;97923.63;;;13.58;73.50
65010;BME280;51556;50.002;22.014;2023-04-25T06:40:51;97925.60;;;13.58;73.90
65010;BME280;51556;50.002;22.014;2023-04-25T06:43:17;97929.63;;;13.56;73.94
65010;BME280;51556;50.002;22.014;2023-04-25T06:45:42;97930.00;;;13.50;74.00
65010;BME280;51556;50.002;22.014;2023-04-25T06:48:08;97934.30;;;13.40;73.61
65010;BME280;51556;50.002;22.014;2023-04-25T06:50:33;97935.27;;;13.27;73.55
65010;BME280;51556;50.002;22.014;2023-04-25T06:52:59;97937.02;;;13.08;73.87
65010;BME280;51556;50.002;22.014;2023-04-25T06:55:26;97940.97;;;13.01;73.95
65010;BME280;51556;50.002;22.014;2023-04-25T06:57:52;97940.02;;;12.94;74.30
65010;BME280;51556;50.002;22.014;2023-04-25T07:00:18;97943.73;;;12.78;75.07
65010;BME280;51556;50.002;22.014;2023-04-25T07:02:43;97951.40;;;12.67;74.96
65010;BME280;51556;50.002;22.014;2023-04-25T07:05:09;97958.05;;;12.33;76.09
65010;BME280;51556;50.002;22.014;2023-04-25T07:07:35;97956.04;;;12.28;76.01
65010;BME280;51556;50.002;22.014;2023-04-25T07:10:00;97961.61;;;12.14;76.62
65010;BME280;51556;50.002;22.014;2023-04-25T07:12:25;97963.88;;;12.00;76.58
65010;BME280;51556;50.002;22.014;2023-04-25T07:14:51;97965.59;;;11.82;76.51
65010;BME280;51556;50.002;22.014;2023-04-25T07:17:16;97963.20;;;11.67;76.76
65010;BME280;51556;50.002;22.014;2023-04-25T07:19:42;97966.51;;;11.57;77.22
65010;BME280;51556;50.002;22.014;2023-04-25T07:22:08;97967.06;;;11.50;77.31
65010;BME280;51556;50.002;22.014;2023-04-25T07:24:34;97968.92;;;11.48;77.48
65010;BME280;51556;50.002;22.014;2023-04-25T07:26:59;97965.73;;;11.52;77.11
65010;BME280;51556;50.002;22.014;2023-04-25T07:29:26;97970.17;;;11.48;77.32
65010;BME280;51556;50.002;22.014;2023-04-25T07:31:52;97968.98;;;11.44;77.45
65010;BME280;51556;50.002;22.014;2023-04-25T07:34:18;97972.08;;;11.27;78.41
65010;BME280;51556;50.002;22.014;2023-04-25T07:36:43;97973.50;;;11.27;77.96
65010;BME280;51556;50.002;22.014;2023-04-25T07:39:09;97974.52;;;11.28;78.07
65010;BME280;51556;50.002;22.014;2023-04-25T07:41:36;97974.80;;;11.29;78.03
65010;BME280;51556;50.002;22.014;2023-04-25T07:44:01;97984.39;;;11.35;77.94
65010;BME280;51556;50.002;22.014;2023-04-25T07:46:26;97980.63;;;11.36;77.27
65010;BME280;51556;50.002;22.014;2023-04-25T07:48:52;97986.89;;;11.37;77.78
65010;BME280;51556;50.002;22.014;2023-04-25T07:51:18;97986.94;;;11.37;77.95
65010;BME280;51556;50.002;22.014;2023-04-25T07:53:45;97988.50;;;11.34;77.87
65010;BME280;51556;50.002;22.014;2023-04-25T07:56:11;97994.20;;;11.36;77.95
65010;BME280;51556;50.002;22.014;2023-04-25T07:58:36;97993.08;;;11.41;77.54
65010;BME280;51556;50.002;22.014;2023-04-25T08:01:02;98003.55;;;11.43;77.60
65010;BME280;51556;50.002;22.014;2023-04-25T08:03:28;97997.12;;;11.34;77.71
65010;BME280;51556;50.002;22.014;2023-04-25T08:05:53;98001.25;;;11.29;77.92
65010;BME280;51556;50.002;22.014;2023-04-25T08:08:19;98002.33;;;11.25;77.43
65010;BME280;51556;50.002;22.014;2023-04-25T08:10:44;98005.23;;;11.27;77.33
65010;BME280;51556;50.002;22.014;2023-04-25T08:13:09;98007.27;;;11.11;77.96
65010;BME280;51556;50.002;22.014;2023-04-25T08:15:35;98014.19;;;11.06;77.99
65010;BME280;51556;50.002;22.014;2023-04-25T08:18:00;98014.19;;;10.99;78.21
65010;BME280;51556;50.002;22.014;2023-04-25T08:20:26;98020.92;;;10.91;78.21
65010;BME280;51556;50.002;22.014;2023-04-25T08:22:52;98015.63;;;10.91;77.73
65010;BME280;51556;50.002;22.014;2023-04-25T08:25:17;98015.71;;;10.89;78.12
65010;BME280;51556;50.002;22.014;2023-04-25T08:27:43;98015.84;;;10.83;78.49
65010;BME280;51556;50.002;22.014;2023-04-25T08:30:08;98024.02;;;10.74;78.88
65010;BME280;51556;50.002;22.014;2023-04-25T08:32:41;98025.46;;;10.70;78.97
65010;BME280;51556;50.002;22.014;2023-04-25T08:35:07;98029.10;;;10.71;78.62
65010;BME280;51556;50.002;22.014;2023-04-25T08:37:32;98032.52;;;10.65;79.00
65010;BME280;51556;50.002;22.014;2023-04-25T08:39:58;98037.77;;;10.59;79.20
65010;BME280;51556;50.002;22.014;2023-04-25T08:42:24;98038.60;;;10.52;79.32
65010;BME280;51556;50.002;22.014;2023-04-25T08:44:53;98038.52;;;10.50;79.37
65010;BME280;51556;50.002;22.014;2023-04-25T08:47:22;98041.33;;;10.50;79.09
65010;BME280;51556;50.002;22.014;2023-04-25T08:49:49;98042.16;;;10.51;78.84
65010;BME280;51556;50.002;22.014;2023-04-25T08:52:16;98045.49;;;10.55;78.54
65010;BME280;51556;50.002;22.014;2023-04-25T08:54:48;98053.30;;;10.50;78.76
65010;BME280;51556;50.002;22.014;2023-04-25T08:57:14;98054.16;;;10.35;78.97
65010;BME280;51556;50.002;22.014;2023-04-25T08:59:40;98058.55;;;10.35;78.74
65010;BME280;51556;50.002;22.014;2023-04-25T09:02:11;98061.20;;;10.39;78.77
65010;BME280;51556;50.002;22.014;2023-04-25T09:04:40;98063.72;;;10.38;78.78
65010;BME280;51556;50.002;22.014;2023-04-25T09:07:06;98066.65;;;10.39;78.57
65010;BME280;51556;50.002;22.014;2023-04-25T09:09:32;98067.26;;;10.38;78.33
65010;BME280;51556;50.002;22.014;2023-04-25T09:11:57;98067.42;;;10.41;78.05
65010;BME280;51556;50.002;22.014;2023-04-25T09:14:24;98070.08;;;10.48;77.78
65010;BME280;51556;50.002;22.014;2023-04-25T09:19:30;98077.07;;;10.49;77.81
65010;BME280;51556;50.002;22.014;2023-04-25T09:21:58;98080.42;;;10.49;77.75
65010;BME280;51556;50.002;22.014;2023-04-25T09:27:10;98091.95;;;10.51;78.20
65010;BME280;51556;50.002;22.014;2023-04-25T09:29:37;98084.96;;;10.46;78.04
65010;BME280;51556;50.002;22.014;2023-04-25T09:32:19;98087.23;;;10.43;78.39
65010;BME280;51556;50.002;22.014;2023-04-25T09:34:56;98092.05;;;10.34;78.58
65010;BME280;51556;50.002;22.014;2023-04-25T09:37:24;98096.30;;;10.29;78.83
65010;BME280;51556;50.002;22.014;2023-04-25T09:39:53;98098.04;;;10.22;79.16
65010;BME280;51556;50.002;22.014;2023-04-25T09:42:23;98099.41;;;10.14;78.98
65010;BME280;51556;50.002;22.014;2023-04-25T09:44:51;98108.73;;;10.14;78.52
65010;BME280;51556;50.002;22.014;2023-04-25T09:47:17;98107.98;;;10.10;78.72
65010;BME280;51556;50.002;22.014;2023-04-25T09:49:43;98109.67;;;10.12;78.58
65010;BME280;51556;50.002;22.014;2023-04-25T09:52:13;98108.41;;;10.13;78.21
65010;BME280;51556;50.002;22.014;2023-04-25T09:54:40;98106.45;;;10.10;78.03
65010;BME280;51556;50.002;22.014;2023-04-25T09:57:18;98110.65;;;10.14;78.02
65010;BME280;51556;50.002;22.014;2023-04-25T09:59:49;98112.17;;;10.20;78.54
65010;BME280;51556;50.002;22.014;2023-04-25T10:02:20;98115.44;;;10.13;79.52
65010;BME280;51556;50.002;22.014;2023-04-25T10:04:53;98117.34;;;10.01;80.06
65010;BME280;51556;50.002;22.014;2023-04-25T10:07:22;98116.43;;;9.94;80.12
65010;BME280;51556;50.002;22.014;2023-04-25T10:09:59;98123.94;;;9.83;80.67
65010;BME280;51556;50.002;22.014;2023-04-25T10:12:26;98126.58;;;9.79;80.50
65010;BME280;51556;50.002;22.014;2023-04-25T10:14:52;98131.48;;;9.83;80.34
65010;BME280;51556;50.002;22.014;2023-04-25T10:17:20;98131.95;;;9.85;79.75
65010;BME280;51556;50.002;22.014;2023-04-25T10:19:49;98135.04;;;9.86;79.81
65010;BME280;51556;50.002;22.014;2023-04-25T10:22:18;98136.29;;;9.86;80.25
65010;BME280;51556;50.002;22.014;2023-04-25T10:24:46;98133.09;;;9.83;80.28
65010;BME280;51556;50.002;22.014;2023-04-25T10:27:12;98125.08;;;9.89;80.35
65010;BME280;51556;50.002;22.014;2023-04-25T10:29:38;98124.59;;;9.97;79.42
65010;BME280;51556;50.002;22.014;2023-04-25T10:32:04;98126.70;;;10.00;79.08
65010;BME280;51556;50.002;22.014;2023-04-25T10:34:40;98125.48;;;10.00;78.91
65010;BME280;51556;50.002;22.014;2023-04-25T10:37:09;98127.60;;;9.96;79.18
65010;BME280;51556;50.002;22.014;2023-04-25T10:39:41;98125.98;;;9.97;79.37
65010;BME280;51556;50.002;22.014;2023-04-25T10:42:07;98125.39;;;9.98;79.30
65010;BME280;51556;50.002;22.014;2023-04-25T10:44:33;98127.73;;;10.01;78.93
65010;BME280;51556;50.002;22.014;2023-04-25T10:47:01;98130.52;;;9.94;78.90
65010;BME280;51556;50.002;22.014;2023-04-25T10:49:41;98129.29;;;9.98;79.07
65010;BME280;51556;50.002;22.014;2023-04-25T10:52:24;98132.48;;;9.97;78.94
65010;BME280;51556;50.002;22.014;2023-04-25T10:54:56;98136.18;;;9.97;79.06
65010;BME280;51556;50.002;22.014;2023-04-25T10:59:58;98136.14;;;9.81;79.31
65010;BME280;51556;50.002;22.014;2023-04-25T11:02:26;98134.77;;;9.80;79.02
65010;BME280;51556;50.002;22.014;2023-04-25T11:04:53;98136.98;;;9.74;79.33
65010;BME280;51556;50.002;22.014;2023-04-25T11:10:05;98137.30;;;9.79;79.26
65010;BME280;51556;50.002;22.014;2023-04-25T11:12:32;98137.38;;;9.85;79.41
65010;BME280;51556;50.002;22.014;2023-04-25T11:15:05;98136.38;;;9.88;79.07
65010;BME280;51556;50.002;22.014;2023-04-25T11:17:31;98136.80;;;9.91;79.00
65010;BME280;51556;50.002;22.014;2023-04-25T11:19:56;98135.00;;;9.83;79.12
65010;BME280;51556;50.002;22.014;2023-04-25T11:22:23;98139.52;;;9.72;79.07
65010;BME280;51556;50.002;22.014;2023-04-25T11:24:48;98142.40;;;9.74;79.10
65010;BME280;51556;50.002;22.014;2023-04-25T11:27:14;98140.70;;;9.77;79.00
65010;BME280;51556;50.002;22.014;2023-04-25T11:29:40;98140.42;;;9.79;78.66
65010;BME280;51556;50.002;22.014;2023-04-25T11:32:06;98140.35;;;9.82;79.53
65010;BME280;51556;50.002;22.014;2023-04-25T11:34:33;98145.59;;;9.82;78.38
65010;BME280;51556;50.002;22.014;2023-04-25T11:36:59;98140.79;;;9.79;77.92
65010;BME280;51556;50.002;22.014;2023-04-25T11:39:26;98144.63;;;9.84;78.02
65010;BME280;51556;50.002;22.014;2023-04-25T11:41:52;98140.30;;;9.83;78.18
65010;BME280;51556;50.002;22.014;2023-04-25T11:44:19;98140.48;;;9.86;78.02
65010;BME280;51556;50.002;22.014;2023-04-25T11:46:45;98141.40;;;9.90;78.08
65010;BME280;51556;50.002;22.014;2023-04-25T11:49:12;98143.52;;;9.86;78.28
65010;BME280;51556;50.002;22.014;2023-04-25T11:51:46;98145.81;;;9.77;78.06
65010;BME280;51556;50.002;22.014;2023-04-25T11:54:12;98149.66;;;9.77;78.29
65010;BME280;51556;50.002;22.014;2023-04-25T11:56:43;98144.48;;;9.79;77.98
65010;BME280;51556;50.002;22.014;2023-04-25T11:59:08;98145.98;;;9.82;77.71
65010;BME280;51556;50.002;22.014;2023-04-25T12:01:39;98141.82;;;9.84;77.57
65010;BME280;51556;50.002;22.014;2023-04-25T12:04:19;98143.64;;;9.91;77.39
65010;BME280;51556;50.002;22.014;2023-04-25T12:06:47;98143.06;;;9.92;76.70
65010;BME280;51556;50.002;22.014;2023-04-25T12:09:15;98137.50;;;9.87;76.45
65010;BME280;51556;50.002;22.014;2023-04-25T12:11:48;98134.92;;;9.85;76.78
65010;BME280;51556;50.002;22.014;2023-04-25T12:14:22;98137.89;;;9.90;76.74
65010;BME280;51556;50.002;22.014;2023-04-25T12:16:49;98130.17;;;9.93;76.82
65010;BME280;51556;50.002;22.014;2023-04-25T12:19:17;98136.09;;;9.99;77.13
65010;BME280;51556;50.002;22.014;2023-04-25T12:21:44;98135.36;;;9.99;76.78
65010;BME280;51556;50.002;22.014;2023-04-25T12:24:28;98132.86;;;10.04;76.90
65010;BME280;51556;50.002;22.014;2023-04-25T12:27:01;98132.05;;;10.02;77.40
65010;BME280;51556;50.002;22.014;2023-04-25T12:29:29;98135.75;;;10.02;76.51
65010;BME280;51556;50.002;22.014;2023-04-25T12:31:55;98132.53;;;10.03;76.07
65010;BME280;51556;50.002;22.014;2023-04-25T12:34:22;98137.53;;;10.06;75.47
65010;BME280;51556;50.002;22.014;2023-04-25T12:36:48;98137.79;;;10.08;75.60
65010;BME280;51556;50.002;22.014;2023-04-25T12:39:16;98138.20;;;10.12;75.67
65010;BME280;51556;50.002;22.014;2023-04-25T12:41:43;98141.67;;;10.12;75.09
65010;BME280;51556;50.002;22.014;2023-04-25T12:44:09;98137.33;;;10.11;74.64
65010;BME280;51556;50.002;22.014;2023-04-25T12:46:36;98133.96;;;10.12;74.79
65010;BME280;51556;50.002;22.014;2023-04-25T12:49:01;98134.91;;;10.14;74.80
65010;BME280;51556;50.002;22.014;2023-04-25T12:51:28;98141.34;;;10.21;75.16
65010;BME280;51556;50.002;22.014;2023-04-25T12:53:54;98134.25;;;10.22;75.14
65010;BME280;51556;50.002;22.014;2023-04-25T12:56:19;98138.07;;;10.23;74.94
65010;BME280;51556;50.002;22.014;2023-04-25T12:58:45;98135.90;;;10.25;75.15
65010;BME280;51556;50.002;22.014;2023-04-25T13:01:11;98139.96;;;10.24;74.95